Skip Navigation Links Skip Navigation Links

Current Weather

Ronald Reagan Washington National, Washington

For information only: do not use for flight planning or navigation.
Latest weather
Observation time Monday, March 19, 2018 5:52 AM EDT
Local time Monday, March 19, 2018 6:55 AM EDT
Flight conditions Visual Meteorological Conditions
Wind direction South-Southwest (210°)
Wind speed 6 mph
Visibility 10 mi.
Sky condition
Ceiling unlimited
Cloud layer few clouds 15,000 ft.
Cloud layer scattered clouds 25,000 ft.
Temperature 36°F
Dewpoint 28°F
Altimeter 29.91 in.Hg
Derived measurements
Relative humidity 73%
Wind chill 31°F
Density altitude -1448 ft.
Sea-level pressure 29.91 in.Hg
Automated weather observing station with precipitation discriminator.
METAR KDCA 190952Z 21005KT 10SM FEW150 SCT250 02/M02 A2991 RMK AO2 SLP127 T00221022


Location code

InnerDrive.Weather 4.0.6615.0 Release CLR 4.0.30319.42000
Copyright ©2018 Inner Drive Technology. All rights reserved. Portions Copyright ©1986-2018 David Braverman.

Find weather

Site navigation

Skip Navigation Links

Place info

Page info

PayPal - The safer, easier way to pay online!

Return home.

Copyright ©2018 Inner Drive Technology. Purveyors of fine, hand-crafted computer software. Page printed 2018-03-19T10:55:46 UTC.